Accueil
METAR-TAF:

METAR-TAF

Aéroports :

Amman, Jordanie

Aéroport civil d'Amman

latitude: 31-59N, longitude: 035-59E, altitude: 767 m

Observation

Le bulletin a été fait il y a 49 minutes, à 12:00 UTC
Vent calme
Température 28°C
Humidité 14%
Pression 1019 hPa
Visibilité: 5000 m
brume sèche

METAR: OJAM 181200Z 00000KT 5000 HZ NSC 28/M02 Q1019 NOSIG

Heure: 15:49 (12:49 UTC)

Prévision

Le bulletin a été fait il y a 1 heure et 49 minutes, à 11:00 UTC
Prévision valable du 18 à 12 UTC au 19 à 18 UTC
Vent 8 kt de est/sud-est
Visibilité: 4000 m
brume sèche
Temporairement
du 19 à 02 UTC au 19 à 06 UTC
Vent 2 kt de direction variable
Visibilité: 2500 m
fumée

TAF: OJAM 181100Z 1812/1918 12008KT 4000 HZ NSC TEMPO 1902/1906 VRB02KT 2500 FU

Observations et prévisions météorologiques de plus de 4000 aéroports (messages METAR et TAF).

Les stations disponibles sont représentées par des disques jaunes et rouges sur la carte.

Passer la souris dessus pour voir le nom de la station.

Cliquer dessus pour voir les observations et prévisions météorologiques.

Pour changer de carte: cliquez sur les boutons verts avec une croix noire pour zoomer, sur le bouton vert avec un tiret pour effectuer un zoom arrière, ou sur les flèches vertes pour les cartes adjacentes.


METAR-TAF: